createdAt,value
2019-05-02T00:01:53.997Z,31.10
2019-05-02T00:04:21.922Z,30.10
2019-05-02T00:07:05.073Z,32.37
2019-05-02T00:09:34.735Z,32.43
2019-05-02T00:12:05.073Z,34.97
2019-05-02T00:14:33.275Z,30.47
2019-05-02T00:17:01.051Z,32.60
2019-05-02T00:19:28.875Z,33.03
2019-05-02T00:21:56.735Z,35.60
2019-05-02T00:24:24.511Z,34.40
2019-05-02T00:26:56.126Z,34.93
2019-05-02T00:29:23.727Z,35.30
2019-05-02T00:31:51.693Z,33.83
2019-05-02T00:34:19.497Z,34.13
2019-05-02T00:36:47.285Z,33.33
2019-05-02T00:39:15.300Z,36.07
2019-05-02T00:41:43.124Z,35.33
2019-05-02T00:44:12.230Z,36.00
2019-05-02T00:46:40.212Z,43.37
2019-05-02T00:49:08.000Z,36.17
2019-05-02T00:51:35.825Z,35.27
2019-05-02T00:54:03.712Z,37.03
2019-05-02T00:56:31.548Z,35.97
2019-05-02T00:59:02.245Z,37.57
2019-05-02T01:01:59.941Z,36.23
2019-05-02T01:04:30.537Z,34.83
2019-05-02T01:06:58.341Z,37.63
2019-05-02T01:09:26.241Z,39.20
2019-05-02T01:11:54.090Z,37.23
2019-05-02T01:14:21.886Z,38.80
2019-05-02T01:16:54.319Z,38.20
2019-05-02T01:19:19.350Z,39.57
2019-05-02T01:21:47.162Z,41.30
2019-05-02T01:24:14.924Z,39.30
2019-05-02T01:26:51.376Z,40.97
2019-05-02T01:29:33.883Z,40.23
2019-05-02T01:32:25.279Z,42.00
2019-05-02T01:34:59.627Z,39.60
2019-05-02T01:37:32.343Z,41.53
2019-05-02T01:40:00.143Z,39.37
2019-05-02T01:42:39.376Z,40.67
2019-05-02T01:44:57.609Z,41.17
2019-05-02T01:47:29.148Z,39.73
2019-05-02T01:49:57.181Z,40.80
2019-05-02T01:52:24.968Z,38.33
2019-05-02T01:54:52.909Z,41.93
2019-05-02T01:57:20.724Z,39.50
2019-05-02T01:59:48.469Z,41.27
2019-05-02T02:02:16.470Z,44.50
2019-05-02T02:04:44.259Z,42.73
2019-05-02T02:07:15.088Z,40.23
2019-05-02T02:09:43.948Z,43.63
2019-05-02T02:12:11.528Z,38.17
2019-05-02T02:14:39.393Z,44.27
2019-05-02T02:17:10.065Z,40.60
2019-05-02T02:19:43.232Z,42.30
2019-05-02T02:22:26.007Z,39.47
2019-05-02T02:25:11.943Z,46.97
2019-05-02T02:27:39.757Z,41.70
2019-05-02T02:30:07.860Z,43.97
2019-05-02T02:32:35.690Z,43.40
2019-05-02T02:35:10.208Z,41.50
2019-05-02T02:37:34.237Z,45.97
2019-05-02T02:40:02.427Z,44.43
2019-05-02T02:42:31.718Z,44.43
2019-05-02T02:45:25.115Z,44.67
2019-05-02T02:47:59.926Z,43.03
2019-05-02T02:50:22.652Z,47.47
2019-05-02T02:52:50.470Z,43.97
2019-05-02T02:55:22.032Z,45.37
2019-05-02T02:57:47.956Z,45.10
2019-05-02T03:00:16.264Z,43.70
2019-05-02T03:02:48.537Z,45.37
2019-05-02T03:05:18.959Z,48.57
2019-05-02T03:07:43.810Z,43.73
2019-05-02T03:10:11.704Z,47.90
2019-05-02T03:13:02.100Z,45.23
2019-05-02T03:15:32.378Z,44.03
2019-05-02T03:18:02.076Z,47.87
2019-05-02T03:20:40.006Z,46.43
2019-05-02T03:22:59.913Z,44.27
2019-05-02T03:25:49.178Z,45.47
2019-05-02T03:27:58.360Z,45.97
2019-05-02T03:30:35.283Z,42.87
2019-05-02T03:33:06.080Z,47.80
2019-05-02T03:35:40.634Z,45.00
2019-05-02T03:37:55.639Z,51.57
2019-05-02T03:40:23.447Z,48.17
2019-05-02T03:42:51.249Z,49.47
2019-05-02T03:45:19.068Z,47.00
2019-05-02T03:47:47.735Z,45.17
2019-05-02T03:50:15.562Z,47.60
2019-05-02T03:52:46.285Z,45.93
2019-05-02T03:55:13.100Z,45.57
2019-05-02T03:57:42.090Z,44.40
2019-05-02T04:00:13.745Z,45.90
2019-05-02T04:02:40.289Z,45.37
2019-05-02T04:05:08.120Z,46.17
2019-05-02T04:07:40.435Z,44.87
2019-05-02T04:10:07.280Z,48.33
2019-05-02T04:12:35.570Z,47.47
2019-05-02T04:15:03.737Z,48.13
2019-05-02T04:17:37.147Z,44.67
2019-05-02T04:20:09.454Z,44.03
2019-05-02T04:22:32.387Z,45.33
2019-05-02T04:25:00.178Z,45.53
2019-05-02T04:27:34.049Z,48.30
2019-05-02T04:30:09.811Z,46.53
2019-05-02T04:32:28.416Z,45.10
2019-05-02T04:34:58.006Z,46.40
2019-05-02T04:37:25.966Z,45.10
2019-05-02T04:39:58.166Z,46.17
2019-05-02T04:42:23.682Z,44.53
2019-05-02T04:45:11.890Z,45.23
2019-05-02T04:47:22.360Z,44.83
2019-05-02T04:49:51.939Z,45.30
2019-05-02T04:52:21.042Z,45.37
2019-05-02T04:54:49.284Z,41.17
2019-05-02T04:57:18.635Z,46.47
2019-05-02T04:59:50.083Z,42.93
2019-05-02T05:02:21.243Z,38.23
2019-05-02T05:04:49.217Z,40.67
2019-05-02T05:07:17.767Z,40.00
2019-05-02T05:09:47.908Z,39.57
2019-05-02T05:12:19.035Z,40.33
2019-05-02T05:14:47.208Z,43.33
2019-05-02T05:17:17.950Z,37.93
2019-05-02T05:19:44.709Z,41.97
2019-05-02T05:22:12.624Z,39.97
2019-05-02T05:24:47.695Z,40.50
2019-05-02T05:27:18.896Z,38.87
2019-05-02T05:29:46.652Z,39.27
2019-05-02T05:32:15.122Z,39.40
2019-05-02T05:34:42.921Z,38.20
2019-05-02T05:37:13.425Z,37.60
2019-05-02T05:39:43.182Z,38.53
2019-05-02T05:42:10.696Z,35.70
2019-05-02T05:44:39.975Z,37.23
2019-05-02T05:47:11.985Z,40.10
2019-05-02T05:49:37.639Z,37.57
2019-05-02T05:52:05.477Z,38.03
2019-05-02T05:54:38.349Z,41.30
2019-05-02T05:57:04.561Z,35.40
2019-05-02T05:59:32.465Z,37.03
2019-05-02T06:02:00.315Z,36.33
2019-05-02T06:04:32.643Z,38.23
2019-05-02T06:06:59.535Z,38.43
2019-05-02T06:09:31.041Z,37.20
2019-05-02T06:11:57.325Z,39.63
2019-05-02T06:14:26.347Z,40.73
2019-05-02T06:16:54.338Z,41.17
2019-05-02T06:19:22.457Z,37.30
2019-05-02T06:21:50.257Z,44.83
2019-05-02T06:24:18.116Z,39.37
2019-05-02T06:26:49.750Z,42.80
2019-05-02T06:29:18.810Z,40.40
2019-05-02T06:31:45.438Z,44.33
2019-05-02T06:34:13.259Z,40.80
2019-05-02T06:36:41.223Z,40.87
2019-05-02T06:39:09.127Z,43.93
2019-05-02T06:41:36.991Z,44.13
2019-05-02T06:44:04.791Z,46.67
2019-05-02T06:46:32.582Z,41.57
2019-05-02T06:49:00.404Z,44.30
2019-05-02T06:51:28.257Z,43.33
2019-05-02T06:53:56.076Z,40.53
2019-05-02T06:56:24.050Z,42.77
2019-05-02T06:58:51.841Z,43.87
2019-05-02T07:01:21.293Z,39.83
2019-05-02T07:03:49.480Z,42.93
2019-05-02T07:06:17.501Z,43.83
2019-05-02T07:08:45.544Z,43.53
2019-05-02T07:11:13.386Z,44.63
2019-05-02T07:13:42.055Z,44.80
2019-05-02T07:16:36.865Z,48.20
2019-05-02T07:18:53.539Z,45.53
2019-05-02T07:21:23.572Z,42.73
2019-05-02T07:23:53.536Z,45.93
2019-05-02T07:26:22.871Z,45.37
2019-05-02T07:28:50.553Z,40.83
2019-05-02T07:31:18.335Z,41.93
2019-05-02T07:33:46.131Z,42.47
2019-05-02T07:36:13.947Z,41.13
2019-05-02T07:38:41.729Z,40.33
2019-05-02T07:41:09.615Z,40.50
2019-05-02T07:43:37.393Z,41.87
2019-05-02T07:46:05.522Z,45.40
2019-05-02T07:48:33.296Z,38.83
2019-05-02T07:51:01.129Z,38.90
2019-05-02T07:53:28.917Z,36.17
2019-05-02T07:55:56.695Z,35.17
2019-05-02T07:58:24.484Z,37.50
2019-05-02T08:00:52.337Z,38.13
2019-05-02T08:03:20.093Z,38.50
2019-05-02T08:05:47.913Z,35.07
2019-05-02T08:08:15.691Z,38.10
2019-05-02T08:10:43.540Z,36.63
2019-05-02T08:13:12.113Z,33.97
2019-05-02T08:15:45.686Z,34.83
2019-05-02T08:18:10.906Z,38.57
2019-05-02T08:20:38.704Z,33.40
2019-05-02T08:23:06.575Z,36.03
2019-05-02T08:25:34.395Z,34.23
2019-05-02T08:28:25.410Z,31.77
2019-05-02T08:30:55.298Z,33.67
2019-05-02T08:33:23.101Z,32.47
2019-05-02T08:35:50.929Z,29.90
2019-05-02T08:38:19.057Z,36.23
2019-05-02T08:40:47.719Z,31.00
2019-05-02T08:43:16.604Z,32.73
2019-05-02T08:45:44.422Z,31.37
2019-05-02T08:48:12.248Z,36.07
2019-05-02T08:50:40.036Z,35.17
2019-05-02T08:53:07.930Z,33.50
2019-05-02T08:55:35.688Z,36.67
2019-05-02T08:58:06.605Z,36.93
2019-05-02T09:00:37.410Z,34.37
2019-05-02T09:03:04.790Z,32.90
2019-05-02T09:05:37.028Z,31.73
2019-05-02T09:08:02.508Z,32.33
2019-05-02T09:10:30.303Z,31.23
2019-05-02T09:12:58.137Z,32.90
2019-05-02T09:15:25.933Z,27.53
2019-05-02T09:17:56.460Z,28.80
2019-05-02T09:20:23.755Z,31.70
2019-05-02T09:22:55.810Z,29.15
2019-05-02T09:25:22.044Z,33.85
2019-05-02T09:27:49.982Z,26.75
2019-05-02T09:30:22.706Z,29.70
2019-05-02T09:32:48.384Z,30.40
2019-05-02T09:35:16.189Z,31.80
2019-05-02T09:37:44.017Z,29.63
2019-05-02T09:40:16.482Z,32.33
2019-05-02T09:42:43.025Z,34.05
2019-05-02T09:45:17.159Z,32.60
2019-05-02T09:47:56.586Z,30.93
2019-05-02T09:50:20.691Z,29.20
2019-05-02T09:52:46.262Z,29.83
2019-05-02T09:55:17.563Z,26.97
2019-05-02T09:57:45.410Z,27.93
2019-05-02T10:00:41.884Z,27.62
2019-05-02T10:03:12.097Z,30.02
2019-05-02T10:05:39.996Z,30.02
2019-05-02T10:08:10.998Z,23.98
2019-05-02T10:10:42.526Z,19.67
2019-05-02T10:13:08.036Z,22.90
2019-05-02T10:15:35.978Z,16.35
2019-05-02T10:18:10.954Z,31.37
2019-05-02T10:20:36.379Z,15.55
2019-05-02T10:23:04.489Z,15.80
2019-05-02T10:25:38.682Z,15.70
2019-05-02T10:28:02.456Z,16.75
2019-05-02T10:30:35.238Z,21.23
2019-05-02T10:33:02.604Z,19.05
2019-05-02T10:35:37.501Z,25.48
2019-05-02T10:38:03.690Z,22.85
2019-05-02T10:40:32.161Z,31.25
2019-05-02T10:43:00.106Z,22.20
2019-05-02T10:45:27.925Z,18.00
2019-05-02T10:47:55.728Z,24.47
2019-05-02T10:50:28.163Z,27.32
2019-05-02T10:52:55.952Z,16.60
2019-05-02T10:55:24.250Z,20.85
2019-05-02T10:57:52.822Z,20.15
2019-05-02T11:00:27.747Z,25.35
2019-05-02T11:03:16.243Z,20.50
2019-05-02T11:05:47.675Z,20.97
2019-05-02T11:08:15.482Z,16.20
2019-05-02T11:10:44.530Z,23.83
2019-05-02T11:13:18.238Z,24.65
2019-05-02T11:16:04.667Z,18.52
2019-05-02T11:18:48.681Z,20.77
2019-05-02T11:21:18.790Z,22.35
2019-05-02T11:23:46.462Z,19.15
2019-05-02T11:26:20.837Z,18.73
2019-05-02T11:28:43.991Z,18.95
2019-05-02T11:31:12.474Z,21.05
2019-05-02T11:33:41.893Z,17.55
2019-05-02T11:36:09.711Z,13.15
2019-05-02T11:38:48.546Z,11.90
2019-05-02T11:41:07.199Z,15.15
2019-05-02T11:43:37.129Z,13.70
2019-05-02T11:46:07.226Z,13.30
2019-05-02T11:48:34.533Z,12.18
2019-05-02T11:51:02.723Z,14.20
2019-05-02T11:53:32.546Z,15.88
2019-05-02T11:56:03.698Z,11.03
2019-05-02T11:58:32.498Z,11.25
2019-05-02T12:01:04.516Z,12.20
2019-05-02T12:03:42.266Z,13.70
2019-05-02T12:06:12.204Z,11.73
2019-05-02T12:08:45.017Z,12.88
2019-05-02T12:11:16.087Z,12.10
2019-05-02T12:13:39.676Z,11.88
2019-05-02T12:16:10.078Z,7.30
2019-05-02T12:18:37.923Z,8.05
2019-05-02T12:21:05.793Z,9.38
2019-05-02T12:23:36.142Z,17.07
2019-05-02T12:26:03.362Z,15.78
2019-05-02T12:28:32.394Z,16.17
2019-05-02T12:31:00.328Z,13.48
2019-05-02T12:33:32.304Z,21.35
2019-05-02T12:36:00.065Z,23.62
2019-05-02T12:38:27.908Z,24.77
2019-05-02T12:40:57.923Z,24.35
2019-05-02T12:43:25.443Z,25.45
2019-05-02T12:45:53.316Z,24.90
2019-05-02T12:48:21.985Z,26.37
2019-05-02T12:50:52.620Z,22.07
2019-05-02T12:53:21.919Z,25.37
2019-05-02T12:55:49.841Z,24.73
2019-05-02T12:58:17.632Z,23.37
2019-05-02T13:00:45.361Z,22.03
2019-05-02T13:03:36.477Z,22.80
2019-05-02T13:06:04.710Z,23.50
2019-05-02T13:08:35.235Z,23.93
2019-05-02T13:11:25.329Z,23.90
2019-05-02T13:13:53.576Z,21.87
2019-05-02T13:16:22.646Z,22.17
2019-05-02T13:18:51.885Z,23.30
2019-05-02T13:21:24.495Z,22.87
2019-05-02T13:24:16.411Z,21.97
2019-05-02T13:26:44.451Z,21.60
2019-05-02T13:29:12.891Z,21.70
2019-05-02T13:31:55.691Z,21.33
2019-05-02T13:34:37.401Z,22.93
2019-05-02T13:37:08.215Z,20.03
2019-05-02T13:39:52.924Z,23.30
2019-05-02T13:42:21.954Z,21.77
2019-05-02T13:44:57.075Z,23.03
2019-05-02T13:47:25.373Z,23.63
2019-05-02T13:49:57.288Z,21.50
2019-05-02T13:52:22.950Z,22.10
2019-05-02T13:54:52.242Z,21.70
2019-05-02T13:57:21.826Z,21.70
2019-05-02T13:59:49.783Z,20.63
2019-05-02T14:02:35.872Z,20.57
2019-05-02T14:05:06.638Z,21.70
2019-05-02T14:07:34.531Z,20.07
2019-05-02T14:10:07.678Z,21.77
2019-05-02T14:12:44.258Z,22.83
2019-05-02T14:15:14.573Z,21.53
2019-05-02T14:17:42.376Z,17.33
2019-05-02T14:20:13.169Z,19.47
2019-05-02T14:22:39.998Z,18.97
2019-05-02T14:25:08.388Z,18.80
2019-05-02T14:27:36.246Z,16.57
2019-05-02T14:30:06.856Z,16.30
2019-05-02T14:32:34.688Z,16.33
2019-05-02T14:35:11.874Z,16.63
2019-05-02T14:37:39.708Z,14.30
2019-05-02T14:40:27.642Z,15.47
2019-05-02T14:42:57.749Z,12.80
2019-05-02T14:45:30.357Z,13.33
2019-05-02T14:47:58.891Z,14.73
2019-05-02T14:50:26.585Z,15.67
2019-05-02T14:52:56.443Z,16.60
2019-05-02T14:55:26.175Z,14.23
2019-05-02T14:57:57.065Z,13.13
2019-05-02T15:00:26.632Z,15.67
2019-05-02T15:02:54.414Z,16.93
2019-05-02T15:05:27.903Z,14.50
2019-05-02T15:07:52.027Z,13.33
2019-05-02T15:10:22.702Z,11.33
2019-05-02T15:12:53.547Z,13.47
2019-05-02T15:15:20.543Z,15.50
2019-05-02T15:17:48.308Z,11.53
2019-05-02T15:20:16.359Z,14.57
2019-05-02T15:22:44.177Z,12.80
2019-05-02T15:25:16.242Z,11.67
2019-05-02T15:27:44.970Z,12.93
2019-05-02T15:30:12.509Z,11.67
2019-05-02T15:32:52.484Z,14.80
2019-05-02T15:35:42.594Z,12.03
2019-05-02T15:38:14.464Z,14.33
2019-05-02T15:40:48.162Z,12.40
2019-05-02T15:43:10.054Z,11.77
2019-05-02T15:45:43.414Z,9.53
2019-05-02T15:48:07.900Z,10.10
2019-05-02T15:50:35.692Z,7.97
2019-05-02T15:53:18.376Z,9.03
2019-05-02T15:55:46.131Z,8.60
2019-05-02T15:58:22.432Z,9.43
2019-05-02T16:00:52.095Z,11.43
2019-05-02T16:03:20.453Z,9.63
2019-05-02T16:05:49.664Z,10.63
2019-05-02T16:08:17.450Z,8.27
2019-05-02T16:10:45.316Z,5.57
2019-05-02T16:13:17.133Z,6.03
2019-05-02T16:15:43.364Z,5.00
2019-05-02T16:18:12.757Z,5.50
2019-05-02T16:21:04.884Z,4.87
2019-05-02T16:23:32.803Z,5.67
2019-05-02T16:25:56.902Z,4.40
2019-05-02T16:28:25.696Z,4.43
2019-05-02T16:30:56.100Z,1.57
2019-05-02T16:33:23.935Z,2.53
2019-05-02T16:35:54.488Z,2.30
2019-05-02T16:38:22.243Z,2.53
2019-05-02T16:40:50.146Z,4.67
2019-05-02T16:43:17.934Z,6.10
2019-05-02T16:45:45.790Z,5.30
2019-05-02T16:48:13.603Z,4.20
2019-05-02T16:50:42.041Z,4.67
2019-05-02T16:53:11.654Z,5.17
2019-05-02T16:55:39.590Z,4.77
2019-05-02T16:58:07.544Z,4.70
2019-05-02T17:00:36.925Z,6.73
2019-05-02T17:03:05.350Z,7.53
2019-05-02T17:05:33.283Z,5.80
2019-05-02T17:08:18.834Z,6.20
2019-05-02T17:10:53.699Z,7.47
2019-05-02T17:13:18.555Z,7.47
2019-05-02T17:15:46.382Z,7.30
2019-05-02T17:18:17.840Z,7.63
2019-05-02T17:20:46.957Z,6.97
2019-05-02T17:23:13.611Z,8.10
2019-05-02T17:25:41.673Z,8.03
2019-05-02T17:28:12.741Z,7.50
2019-05-02T17:30:40.658Z,8.40
2019-05-02T17:33:12.765Z,7.50
2019-05-02T17:35:43.435Z,8.70
2019-05-02T17:38:08.482Z,8.73
2019-05-02T17:40:36.307Z,9.13
2019-05-02T17:43:06.835Z,9.30
2019-05-02T17:45:38.631Z,7.03
2019-05-02T17:48:10.430Z,9.50
2019-05-02T17:50:59.241Z,7.83
2019-05-02T17:53:26.282Z,9.50
2019-05-02T17:55:54.083Z,12.00
2019-05-02T17:58:21.926Z,8.93
2019-05-02T18:00:56.997Z,8.10
2019-05-02T18:03:24.096Z,8.60
2019-05-02T18:05:52.910Z,10.87
2019-05-02T18:08:21.884Z,9.17
2019-05-02T18:10:50.585Z,7.27
2019-05-02T18:13:19.703Z,8.70
2019-05-02T18:15:47.590Z,9.37
2019-05-02T18:18:15.409Z,10.10
2019-05-02T18:20:46.486Z,8.70
2019-05-02T18:23:13.079Z,10.07
2019-05-02T18:25:40.932Z,10.00
2019-05-02T18:28:08.835Z,8.87
2019-05-02T18:30:36.855Z,9.70
2019-05-02T18:33:07.171Z,11.80
2019-05-02T18:35:37.363Z,9.87
2019-05-02T18:38:04.979Z,9.07
2019-05-02T18:40:32.895Z,9.40
2019-05-02T18:43:02.029Z,10.47
2019-05-02T18:45:58.251Z,9.07
2019-05-02T18:48:25.109Z,9.60
2019-05-02T18:50:53.072Z,11.67
2019-05-02T18:53:25.740Z,14.70
2019-05-02T18:55:51.922Z,9.67
2019-05-02T18:58:20.075Z,8.97
2019-05-02T19:00:47.970Z,10.43
2019-05-02T19:03:17.251Z,9.97
2019-05-02T19:05:46.724Z,11.10
2019-05-02T19:08:14.690Z,9.43
2019-05-02T19:11:01.397Z,10.77
2019-05-02T19:13:12.862Z,10.40
2019-05-02T19:15:45.192Z,13.13
2019-05-02T19:18:17.723Z,12.37
2019-05-02T19:21:06.051Z,10.77
2019-05-02T19:23:35.195Z,12.47
2019-05-02T19:26:10.102Z,13.77
2019-05-02T19:28:47.757Z,12.80
2019-05-02T19:31:15.769Z,12.30
2019-05-02T19:33:44.158Z,12.97
2019-05-02T19:36:16.298Z,11.33
2019-05-02T19:38:42.836Z,14.67
2019-05-02T19:41:11.648Z,14.80
2019-05-02T19:43:49.536Z,13.97
2019-05-02T19:46:12.095Z,13.37
2019-05-02T19:48:41.039Z,11.90
2019-05-02T19:51:18.302Z,12.30
2019-05-02T19:53:39.823Z,13.80
2019-05-02T19:56:07.648Z,13.93
2019-05-02T19:58:36.687Z,15.10
2019-05-02T20:01:05.537Z,14.30
2019-05-02T20:03:33.357Z,12.00
2019-05-02T20:06:05.827Z,13.80
2019-05-02T20:08:32.646Z,15.10
2019-05-02T20:11:02.167Z,18.87
2019-05-02T20:13:32.509Z,24.70
2019-05-02T20:16:06.136Z,26.93
2019-05-02T20:18:42.123Z,27.57
2019-05-02T20:21:23.468Z,27.17
2019-05-02T20:23:44.647Z,30.60
2019-05-02T20:26:15.537Z,30.37
2019-05-02T20:28:42.576Z,29.50
2019-05-02T20:31:12.358Z,30.50
2019-05-02T20:33:40.362Z,29.93
2019-05-02T20:36:08.496Z,30.90
2019-05-02T20:38:36.384Z,32.43
2019-05-02T20:41:04.314Z,31.47
2019-05-02T20:43:32.432Z,31.83
2019-05-02T20:46:02.385Z,31.87
2019-05-02T20:48:32.042Z,34.33
2019-05-02T20:50:59.837Z,32.60
2019-05-02T20:53:31.110Z,32.90
2019-05-02T20:55:57.003Z,35.17
2019-05-02T20:58:24.874Z,33.10
2019-05-02T21:01:05.101Z,30.33
2019-05-02T21:03:22.422Z,31.17
2019-05-02T21:06:09.831Z,30.10
2019-05-02T21:09:15.517Z,32.53
2019-05-02T21:11:49.854Z,34.40
2019-05-02T21:14:18.139Z,31.70
2019-05-02T21:16:45.998Z,30.77
2019-05-02T21:19:13.812Z,30.77
2019-05-02T21:21:42.691Z,26.63
2019-05-02T21:24:11.464Z,28.37
2019-05-02T21:26:39.551Z,26.13
2019-05-02T21:29:07.369Z,26.17
2019-05-02T21:31:35.170Z,24.47
2019-05-02T21:34:03.027Z,27.00
2019-05-02T21:36:31.928Z,26.20
2019-05-02T21:38:59.864Z,23.20
2019-05-02T21:41:27.752Z,27.13
2019-05-02T21:43:55.601Z,27.30
2019-05-02T21:46:23.466Z,26.13
2019-05-02T21:48:52.642Z,26.83
2019-05-02T21:51:58.289Z,24.30
2019-05-02T21:54:34.425Z,22.83
2019-05-02T21:57:09.363Z,22.50
2019-05-02T21:59:37.217Z,24.13
2019-05-02T22:02:08.374Z,25.60
2019-05-02T22:04:36.233Z,24.20
2019-05-02T22:07:04.245Z,21.70
2019-05-02T22:09:32.442Z,20.67
2019-05-02T22:12:00.622Z,21.77
2019-05-02T22:14:28.784Z,20.80
2019-05-02T22:16:56.613Z,19.27
2019-05-02T22:19:24.445Z,19.07
2019-05-02T22:21:52.626Z,20.37
2019-05-02T22:24:20.581Z,17.33
2019-05-02T22:26:48.404Z,17.90
2019-05-02T22:29:16.228Z,17.43
2019-05-02T22:31:44.375Z,17.63
2019-05-02T22:34:12.837Z,16.70
2019-05-02T22:36:41.112Z,16.00
2019-05-02T22:39:22.191Z,18.60
2019-05-02T22:41:50.167Z,17.27
2019-05-02T22:44:17.983Z,16.20
2019-05-02T22:46:45.919Z,16.27
2019-05-02T22:49:14.916Z,16.43
2019-05-02T22:51:43.582Z,16.30
2019-05-02T22:54:24.060Z,16.50
2019-05-02T22:56:42.607Z,15.53
2019-05-02T22:59:10.617Z,15.47
2019-05-02T23:01:38.560Z,14.20
2019-05-02T23:04:06.348Z,13.30
2019-05-02T23:06:34.240Z,14.70
2019-05-02T23:09:02.146Z,14.83
2019-05-02T23:11:29.928Z,13.77
2019-05-02T23:13:57.720Z,14.20
2019-05-02T23:16:25.588Z,13.17
2019-05-02T23:18:53.357Z,14.70
2019-05-02T23:21:21.785Z,15.13
2019-05-02T23:23:49.677Z,15.77
2019-05-02T23:26:43.272Z,13.93
2019-05-02T23:29:12.862Z,14.60
2019-05-02T23:31:42.305Z,13.87
2019-05-02T23:34:10.246Z,13.00
2019-05-02T23:36:38.069Z,13.30
2019-05-02T23:39:08.753Z,14.77
2019-05-02T23:41:36.920Z,14.40
2019-05-02T23:44:04.877Z,13.03
2019-05-02T23:46:34.772Z,13.33
2019-05-02T23:49:02.694Z,13.87
2019-05-02T23:51:32.099Z,12.07
2019-05-02T23:54:02.001Z,13.33
2019-05-02T23:56:32.262Z,11.30
2019-05-02T23:58:59.781Z,11.43
